sensor_id;sensor_type;location;lat;lon;timestamp;temperature;humidity
67147;DHT22;54061;52.036;5.558;2022-10-31T05:00:46;11.50;99.90
67147;DHT22;54061;52.036;5.558;2022-10-31T05:03:12;11.30;99.90
67147;DHT22;54061;52.036;5.558;2022-10-31T05:05:37;11.20;99.90
67147;DHT22;54061;52.036;5.558;2022-10-31T05:08:03;11.20;99.90
67147;DHT22;54061;52.036;5.558;2022-10-31T05:10:29;11.20;99.90
67147;DHT22;54061;52.036;5.558;2022-10-31T05:12:58;11.10;99.90
67147;DHT22;54061;52.036;5.558;2022-10-31T05:15:25;11.10;99.90
67147;DHT22;54061;52.036;5.558;2022-10-31T05:17:52;11.10;99.90
67147;DHT22;54061;52.036;5.558;2022-10-31T05:20:19;11.00;99.90
67147;DHT22;54061;52.036;5.558;2022-10-31T05:22:46;11.00;99.90
67147;DHT22;54061;52.036;5.558;2022-10-31T05:25:13;10.90;99.90
67147;DHT22;54061;52.036;5.558;2022-10-31T05:27:40;10.90;99.90
67147;DHT22;54061;52.036;5.558;2022-10-31T05:30:06;10.80;99.90
67147;DHT22;54061;52.036;5.558;2022-10-31T05:32:40;10.90;99.90
67147;DHT22;54061;52.036;5.558;2022-10-31T05:35:07;11.00;99.90
67147;DHT22;54061;52.036;5.558;2022-10-31T05:37:34;11.10;99.90
67147;DHT22;54061;52.036;5.558;2022-10-31T05:40:01;11.00;99.90
67147;DHT22;54061;52.036;5.558;2022-10-31T05:42:26;11.00;99.90
67147;DHT22;54061;52.036;5.558;2022-10-31T05:44:52;10.90;99.90
67147;DHT22;54061;52.036;5.558;2022-10-31T05:47:17;10.90;99.90
67147;DHT22;54061;52.036;5.558;2022-10-31T05:49:43;10.90;99.90
67147;DHT22;54061;52.036;5.558;2022-10-31T05:52:08;10.90;99.90
67147;DHT22;54061;52.036;5.558;2022-10-31T05:54:34;10.80;99.90
67147;DHT22;54061;52.036;5.558;2022-10-31T05:56:59;10.80;99.90
67147;DHT22;54061;52.036;5.558;2022-10-31T05:59:25;10.80;99.90
67147;DHT22;54061;52.036;5.558;2022-10-31T06:01:50;10.80;99.90
67147;DHT22;54061;52.036;5.558;2022-10-31T06:04:16;10.80;99.90
67147;DHT22;54061;52.036;5.558;2022-10-31T06:06:41;10.80;99.90
67147;DHT22;54061;52.036;5.558;2022-10-31T06:09:07;10.80;99.90
67147;DHT22;54061;52.036;5.558;2022-10-31T06:11:32;10.70;99.90
67147;DHT22;54061;52.036;5.558;2022-10-31T06:13:58;10.70;99.90
67147;DHT22;54061;52.036;5.558;2022-10-31T06:16:23;10.70;99.90
67147;DHT22;54061;52.036;5.558;2022-10-31T06:18:49;10.70;99.90
67147;DHT22;54061;52.036;5.558;2022-10-31T06:21:15;10.80;99.90
67147;DHT22;54061;52.036;5.558;2022-10-31T06:23:40;10.80;99.90
67147;DHT22;54061;52.036;5.558;2022-10-31T06:26:06;10.70;99.90
67147;DHT22;54061;52.036;5.558;2022-10-31T06:28:31;10.70;99.90
67147;DHT22;54061;52.036;5.558;2022-10-31T06:30:57;10.80;99.90
67147;DHT22;54061;52.036;5.558;2022-10-31T06:33:22;10.80;99.90
67147;DHT22;54061;52.036;5.558;2022-10-31T06:35:48;10.70;99.90
67147;DHT22;54061;52.036;5.558;2022-10-31T06:38:14;10.70;99.90
67147;DHT22;54061;52.036;5.558;2022-10-31T06:40:39;10.70;99.90
67147;DHT22;54061;52.036;5.558;2022-10-31T06:43:05;10.70;99.90
67147;DHT22;54061;52.036;5.558;2022-10-31T06:45:30;10.70;99.90
67147;DHT22;54061;52.036;5.558;2022-10-31T06:47:56;10.70;99.90
67147;DHT22;54061;52.036;5.558;2022-10-31T06:50:23;10.80;99.90
67147;DHT22;54061;52.036;5.558;2022-10-31T06:52:57;10.80;99.90
67147;DHT22;54061;52.036;5.558;2022-10-31T06:55:24;10.80;99.90
67147;DHT22;54061;52.036;5.558;2022-10-31T07:00:16;10.90;99.90
67147;DHT22;54061;52.036;5.558;2022-10-31T07:02:42;10.90;99.90
67147;DHT22;54061;52.036;5.558;2022-10-31T07:05:07;10.90;99.90
67147;DHT22;54061;52.036;5.558;2022-10-31T07:07:33;10.90;99.90
67147;DHT22;54061;52.036;5.558;2022-10-31T07:09:58;10.90;99.90
67147;DHT22;54061;52.036;5.558;2022-10-31T07:12:24;11.00;99.90
67147;DHT22;54061;52.036;5.558;2022-10-31T07:14:49;11.10;99.90
67147;DHT22;54061;52.036;5.558;2022-10-31T07:17:15;11.10;99.90
67147;DHT22;54061;52.036;5.558;2022-10-31T07:19:41;11.20;99.90
67147;DHT22;54061;52.036;5.558;2022-10-31T07:22:06;11.30;99.90
67147;DHT22;54061;52.036;5.558;2022-10-31T07:24:32;11.40;99.90
67147;DHT22;54061;52.036;5.558;2022-10-31T07:26:57;11.50;99.90
67147;DHT22;54061;52.036;5.558;2022-10-31T07:29:23;11.60;99.90
67147;DHT22;54061;52.036;5.558;2022-10-31T07:31:48;11.70;99.90
67147;DHT22;54061;52.036;5.558;2022-10-31T07:34:14;11.80;99.90
67147;DHT22;54061;52.036;5.558;2022-10-31T07:36:39;11.80;99.90
67147;DHT22;54061;52.036;5.558;2022-10-31T07:39:05;11.90;99.90
67147;DHT22;54061;52.036;5.558;2022-10-31T07:41:31;11.90;99.90
67147;DHT22;54061;52.036;5.558;2022-10-31T07:43:56;12.00;99.90
67147;DHT22;54061;52.036;5.558;2022-10-31T07:46:22;12.10;99.90
67147;DHT22;54061;52.036;5.558;2022-10-31T07:48:48;12.20;99.90
67147;DHT22;54061;52.036;5.558;2022-10-31T07:51:13;12.30;99.90
67147;DHT22;54061;52.036;5.558;2022-10-31T07:53:39;12.30;99.90
67147;DHT22;54061;52.036;5.558;2022-10-31T07:56:04;12.40;99.90
67147;DHT22;54061;52.036;5.558;2022-10-31T07:58:30;12.50;99.90
67147;DHT22;54061;52.036;5.558;2022-10-31T08:00:57;12.60;99.90
67147;DHT22;54061;52.036;5.558;2022-10-31T08:03:23;12.60;99.90
67147;DHT22;54061;52.036;5.558;2022-10-31T08:05:48;12.70;99.90
67147;DHT22;54061;52.036;5.558;2022-10-31T08:08:14;12.80;99.90
67147;DHT22;54061;52.036;5.558;2022-10-31T08:10:40;12.70;99.90
67147;DHT22;54061;52.036;5.558;2022-10-31T08:13:13;12.70;99.90
67147;DHT22;54061;52.036;5.558;2022-10-31T08:15:39;12.60;99.90
67147;DHT22;54061;52.036;5.558;2022-10-31T08:18:12;12.50;99.90
67147;DHT22;54061;52.036;5.558;2022-10-31T08:20:39;12.50;99.90
67147;DHT22;54061;52.036;5.558;2022-10-31T08:23:05;12.50;99.90
67147;DHT22;54061;52.036;5.558;2022-10-31T08:25:33;12.40;99.90
67147;DHT22;54061;52.036;5.558;2022-10-31T08:27:59;12.50;99.90
67147;DHT22;54061;52.036;5.558;2022-10-31T08:30:27;12.60;99.90
67147;DHT22;54061;52.036;5.558;2022-10-31T08:33:09;12.80;99.90
67147;DHT22;54061;52.036;5.558;2022-10-31T08:35:35;12.90;99.90
67147;DHT22;54061;52.036;5.558;2022-10-31T08:38:01;13.30;99.90
67147;DHT22;54061;52.036;5.558;2022-10-31T08:40:28;13.70;99.90
67147;DHT22;54061;52.036;5.558;2022-10-31T08:43:06;14.00;99.90
67147;DHT22;54061;52.036;5.558;2022-10-31T08:45:34;14.30;99.90
67147;DHT22;54061;52.036;5.558;2022-10-31T08:48:02;14.40;99.90
67147;DHT22;54061;52.036;5.558;2022-10-31T08:50:30;14.20;99.90
67147;DHT22;54061;52.036;5.558;2022-10-31T08:55:33;14.10;99.90
67147;DHT22;54061;52.036;5.558;2022-10-31T08:57:59;14.10;99.90
67147;DHT22;54061;52.036;5.558;2022-10-31T09:00:25;14.10;99.90
67147;DHT22;54061;52.036;5.558;2022-10-31T09:03:02;14.20;99.90
67147;DHT22;54061;52.036;5.558;2022-10-31T09:05:28;14.30;99.90
67147;DHT22;54061;52.036;5.558;2022-10-31T09:08:01;14.50;99.90
67147;DHT22;54061;52.036;5.558;2022-10-31T09:10:28;14.70;99.90
67147;DHT22;54061;52.036;5.558;2022-10-31T09:13:02;14.90;99.90
67147;DHT22;54061;52.036;5.558;2022-10-31T09:15:32;15.00;99.90
67147;DHT22;54061;52.036;5.558;2022-10-31T09:17:57;14.90;99.90
67147;DHT22;54061;52.036;5.558;2022-10-31T09:20:23;14.70;99.90
67147;DHT22;54061;52.036;5.558;2022-10-31T09:22:56;14.60;99.90
67147;DHT22;54061;52.036;5.558;2022-10-31T09:25:22;14.60;99.90
67147;DHT22;54061;52.036;5.558;2022-10-31T09:27:48;14.60;99.90
67147;DHT22;54061;52.036;5.558;2022-10-31T09:30:13;14.70;99.90
67147;DHT22;54061;52.036;5.558;2022-10-31T09:32:39;14.90;99.90
67147;DHT22;54061;52.036;5.558;2022-10-31T09:35:04;15.20;99.90
67147;DHT22;54061;52.036;5.558;2022-10-31T09:37:30;15.50;99.90
67147;DHT22;54061;52.036;5.558;2022-10-31T09:39:57;15.80;99.90
67147;DHT22;54061;52.036;5.558;2022-10-31T09:42:29;15.90;99.90
67147;DHT22;54061;52.036;5.558;2022-10-31T09:45:13;15.70;99.90
67147;DHT22;54061;52.036;5.558;2022-10-31T09:47:56;15.60;99.90
67147;DHT22;54061;52.036;5.558;2022-10-31T09:50:29;15.50;99.90
67147;DHT22;54061;52.036;5.558;2022-10-31T09:53:02;15.60;99.90
67147;DHT22;54061;52.036;5.558;2022-10-31T09:55:36;15.50;99.90
67147;DHT22;54061;52.036;5.558;2022-10-31T09:58:02;15.50;99.90
67147;DHT22;54061;52.036;5.558;2022-10-31T10:00:28;15.50;99.90
67147;DHT22;54061;52.036;5.558;2022-10-31T10:03:19;15.40;99.90
67147;DHT22;54061;52.036;5.558;2022-10-31T10:05:55;15.40;99.90
67147;DHT22;54061;52.036;5.558;2022-10-31T10:08:31;15.40;99.90
67147;DHT22;54061;52.036;5.558;2022-10-31T10:16:44;15.60;99.90
67147;DHT22;54061;52.036;5.558;2022-10-31T10:22:09;15.50;99.90
67147;DHT22;54061;52.036;5.558;2022-10-31T10:30:19;15.50;99.90
67147;DHT22;54061;52.036;5.558;2022-10-31T10:35:34;15.40;99.90
67147;DHT22;54061;52.036;5.558;2022-10-31T10:38:08;15.40;99.90
67147;DHT22;54061;52.036;5.558;2022-10-31T10:40:37;15.40;99.90
67147;DHT22;54061;52.036;5.558;2022-10-31T10:57:22;15.50;99.90
67147;DHT22;54061;52.036;5.558;2022-10-31T10:59:48;15.50;99.90
67147;DHT22;54061;52.036;5.558;2022-10-31T11:02:25;15.50;99.90
67147;DHT22;54061;52.036;5.558;2022-10-31T11:04:58;15.50;99.90
67147;DHT22;54061;52.036;5.558;2022-10-31T11:07:25;15.40;99.90
67147;DHT22;54061;52.036;5.558;2022-10-31T11:09:51;15.50;99.90
67147;DHT22;54061;52.036;5.558;2022-10-31T11:12:31;15.50;99.90
67147;DHT22;54061;52.036;5.558;2022-10-31T11:15:06;15.50;99.90
67147;DHT22;54061;52.036;5.558;2022-10-31T11:17:38;15.50;99.90
67147;DHT22;54061;52.036;5.558;2022-10-31T11:22:41;15.40;99.90
67147;DHT22;54061;52.036;5.558;2022-10-31T11:27:46;15.40;99.90
67147;DHT22;54061;52.036;5.558;2022-10-31T11:30:14;15.40;99.90
67147;DHT22;54061;52.036;5.558;2022-10-31T11:32:47;15.40;99.90
67147;DHT22;54061;52.036;5.558;2022-10-31T11:35:16;15.50;99.90
67147;DHT22;54061;52.036;5.558;2022-10-31T11:37:45;15.50;99.90
67147;DHT22;54061;52.036;5.558;2022-10-31T11:42:42;15.60;99.90
67147;DHT22;54061;52.036;5.558;2022-10-31T11:45:17;15.70;99.90
67147;DHT22;54061;52.036;5.558;2022-10-31T11:47:48;15.70;99.90
67147;DHT22;54061;52.036;5.558;2022-10-31T11:50:23;15.70;99.90
67147;DHT22;54061;52.036;5.558;2022-10-31T11:52:50;15.70;99.90
67147;DHT22;54061;52.036;5.558;2022-10-31T11:57:55;15.80;99.90
67147;DHT22;54061;52.036;5.558;2022-10-31T12:00:27;15.90;99.90
67147;DHT22;54061;52.036;5.558;2022-10-31T12:03:24;15.90;99.90
67147;DHT22;54061;52.036;5.558;2022-10-31T12:06:01;15.90;99.90
67147;DHT22;54061;52.036;5.558;2022-10-31T12:08:32;16.00;99.90
67147;DHT22;54061;52.036;5.558;2022-10-31T12:16:28;16.00;99.90
67147;DHT22;54061;52.036;5.558;2022-10-31T12:19:00;16.20;99.90
67147;DHT22;54061;52.036;5.558;2022-10-31T12:21:56;16.20;99.90
67147;DHT22;54061;52.036;5.558;2022-10-31T12:27:27;16.40;99.90
67147;DHT22;54061;52.036;5.558;2022-10-31T12:30:19;16.40;99.90
67147;DHT22;54061;52.036;5.558;2022-10-31T12:35:56;16.60;99.90
67147;DHT22;54061;52.036;5.558;2022-10-31T12:38:48;16.70;99.90
67147;DHT22;54061;52.036;5.558;2022-10-31T12:41:34;16.80;99.90
67147;DHT22;54061;52.036;5.558;2022-10-31T12:44:38;16.80;99.90
67147;DHT22;54061;52.036;5.558;2022-10-31T12:58:26;16.90;99.90
67147;DHT22;54061;52.036;5.558;2022-10-31T13:03:42;17.00;99.90
67147;DHT22;54061;52.036;5.558;2022-10-31T13:06:16;16.90;99.90
67147;DHT22;54061;52.036;5.558;2022-10-31T13:08:57;16.90;99.90
67147;DHT22;54061;52.036;5.558;2022-10-31T13:11:34;16.90;99.90
67147;DHT22;54061;52.036;5.558;2022-10-31T13:14:18;16.90;99.90
67147;DHT22;54061;52.036;5.558;2022-10-31T13:16:48;17.00;99.90
67147;DHT22;54061;52.036;5.558;2022-10-31T13:19:21;16.90;99.90
67147;DHT22;54061;52.036;5.558;2022-10-31T13:27:21;16.90;99.90
67147;DHT22;54061;52.036;5.558;2022-10-31T13:30:12;16.90;99.90
67147;DHT22;54061;52.036;5.558;2022-10-31T13:33:06;16.90;99.90
67147;DHT22;54061;52.036;5.558;2022-10-31T13:38:48;17.00;99.90
67147;DHT22;54061;52.036;5.558;2022-10-31T13:46:42;17.00;99.90
67147;DHT22;54061;52.036;5.558;2022-10-31T13:54:38;17.10;99.90
67147;DHT22;54061;52.036;5.558;2022-10-31T13:57:17;17.20;99.90
67147;DHT22;54061;52.036;5.558;2022-10-31T14:02:48;17.30;99.40
67147;DHT22;54061;52.036;5.558;2022-10-31T14:05:31;17.30;99.80
67147;DHT22;54061;52.036;5.558;2022-10-31T14:08:01;17.20;99.80
67147;DHT22;54061;52.036;5.558;2022-10-31T14:10:36;17.30;99.90
67147;DHT22;54061;52.036;5.558;2022-10-31T14:13:19;17.30;99.70
67147;DHT22;54061;52.036;5.558;2022-10-31T14:18:30;17.30;99.60
67147;DHT22;54061;52.036;5.558;2022-10-31T14:20:57;17.20;99.70
67147;DHT22;54061;52.036;5.558;2022-10-31T14:23:33;17.20;99.90
67147;DHT22;54061;52.036;5.558;2022-10-31T14:29:02;17.20;99.60
67147;DHT22;54061;52.036;5.558;2022-10-31T14:46:01;17.10;98.80
67147;DHT22;54061;52.036;5.558;2022-10-31T14:51:40;17.10;99.10
67147;DHT22;54061;52.036;5.558;2022-10-31T14:54:14;17.00;98.90
67147;DHT22;54061;52.036;5.558;2022-10-31T14:56:48;17.00;99.00
67147;DHT22;54061;52.036;5.558;2022-10-31T14:59:17;17.00;98.90
67147;DHT22;54061;52.036;5.558;2022-10-31T15:01:56;16.90;99.00
67147;DHT22;54061;52.036;5.558;2022-10-31T15:04:25;16.90;99.10
67147;DHT22;54061;52.036;5.558;2022-10-31T15:06:59;16.90;98.90
67147;DHT22;54061;52.036;5.558;2022-10-31T15:09:31;16.90;98.70
67147;DHT22;54061;52.036;5.558;2022-10-31T15:12:05;16.80;98.60
67147;DHT22;54061;52.036;5.558;2022-10-31T15:14:40;16.90;98.80
67147;DHT22;54061;52.036;5.558;2022-10-31T15:17:05;16.80;98.90
67147;DHT22;54061;52.036;5.558;2022-10-31T15:19:32;16.80;98.70
67147;DHT22;54061;52.036;5.558;2022-10-31T15:21:59;16.80;98.90
67147;DHT22;54061;52.036;5.558;2022-10-31T15:24:32;16.80;99.00
67147;DHT22;54061;52.036;5.558;2022-10-31T15:26:58;16.70;98.90
67147;DHT22;54061;52.036;5.558;2022-10-31T15:29:26;16.80;99.00
67147;DHT22;54061;52.036;5.558;2022-10-31T15:31:57;16.80;99.10
67147;DHT22;54061;52.036;5.558;2022-10-31T15:34:39;16.80;99.20
67147;DHT22;54061;52.036;5.558;2022-10-31T15:37:13;16.70;99.20
67147;DHT22;54061;52.036;5.558;2022-10-31T15:39:39;16.80;99.20
67147;DHT22;54061;52.036;5.558;2022-10-31T15:42:17;16.80;99.30
67147;DHT22;54061;52.036;5.558;2022-10-31T15:44:51;16.70;99.30
67147;DHT22;54061;52.036;5.558;2022-10-31T15:47:22;16.80;99.40
67147;DHT22;54061;52.036;5.558;2022-10-31T15:49:55;16.70;99.40
67147;DHT22;54061;52.036;5.558;2022-10-31T15:52:26;16.80;99.50
67147;DHT22;54061;52.036;5.558;2022-10-31T15:54:55;16.70;99.50
67147;DHT22;54061;52.036;5.558;2022-10-31T15:57:24;16.70;99.50
67147;DHT22;54061;52.036;5.558;2022-10-31T15:59:51;16.70;99.50
67147;DHT22;54061;52.036;5.558;2022-10-31T16:02:21;16.70;99.60
67147;DHT22;54061;52.036;5.558;2022-10-31T16:04:56;16.70;99.60
67147;DHT22;54061;52.036;5.558;2022-10-31T16:07:22;16.70;99.60
67147;DHT22;54061;52.036;5.558;2022-10-31T16:09:50;16.60;99.60
67147;DHT22;54061;52.036;5.558;2022-10-31T16:12:16;16.60;99.70
67147;DHT22;54061;52.036;5.558;2022-10-31T16:14:42;16.50;99.80
67147;DHT22;54061;52.036;5.558;2022-10-31T16:17:13;16.50;99.80
67147;DHT22;54061;52.036;5.558;2022-10-31T16:19:49;16.50;99.80
67147;DHT22;54061;52.036;5.558;2022-10-31T16:22:28;16.40;99.80
67147;DHT22;54061;52.036;5.558;2022-10-31T16:24:59;16.40;99.80
67147;DHT22;54061;52.036;5.558;2022-10-31T16:27:27;16.30;99.80
67147;DHT22;54061;52.036;5.558;2022-10-31T16:29:58;16.30;99.80
67147;DHT22;54061;52.036;5.558;2022-10-31T16:32:52;16.30;99.90
67147;DHT22;54061;52.036;5.558;2022-10-31T16:35:31;16.20;99.90
67147;DHT22;54061;52.036;5.558;2022-10-31T16:37:57;16.20;99.90
67147;DHT22;54061;52.036;5.558;2022-10-31T16:40:23;16.20;99.90
67147;DHT22;54061;52.036;5.558;2022-10-31T16:42:49;16.10;99.90
67147;DHT22;54061;52.036;5.558;2022-10-31T16:45:22;16.20;99.90
67147;DHT22;54061;52.036;5.558;2022-10-31T16:47:48;16.10;99.90
67147;DHT22;54061;52.036;5.558;2022-10-31T16:50:23;16.10;99.90
67147;DHT22;54061;52.036;5.558;2022-10-31T16:52:49;16.10;99.90
67147;DHT22;54061;52.036;5.558;2022-10-31T16:55:15;16.10;99.90
67147;DHT22;54061;52.036;5.558;2022-10-31T16:57:45;16.10;99.90
67147;DHT22;54061;52.036;5.558;2022-10-31T17:00:16;16.10;99.90
67147;DHT22;54061;52.036;5.558;2022-10-31T17:02:42;16.10;99.90
67147;DHT22;54061;52.036;5.558;2022-10-31T17:05:13;16.10;99.90
67147;DHT22;54061;52.036;5.558;2022-10-31T17:07:39;16.10;99.90
67147;DHT22;54061;52.036;5.558;2022-10-31T17:10:05;16.10;99.90
67147;DHT22;54061;52.036;5.558;2022-10-31T17:12:31;16.00;99.90
67147;DHT22;54061;52.036;5.558;2022-10-31T17:14:57;16.00;99.90
67147;DHT22;54061;52.036;5.558;2022-10-31T17:17:22;16.00;99.90
67147;DHT22;54061;52.036;5.558;2022-10-31T17:19:48;16.00;99.90
67147;DHT22;54061;52.036;5.558;2022-10-31T17:22:14;16.00;99.90
67147;DHT22;54061;52.036;5.558;2022-10-31T17:24:39;15.90;99.90
67147;DHT22;54061;52.036;5.558;2022-10-31T17:27:05;15.90;99.90
67147;DHT22;54061;52.036;5.558;2022-10-31T17:29:31;15.90;99.90
67147;DHT22;54061;52.036;5.558;2022-10-31T17:31:57;15.90;99.90
67147;DHT22;54061;52.036;5.558;2022-10-31T17:34:24;15.90;99.90
67147;DHT22;54061;52.036;5.558;2022-10-31T17:36:50;15.90;99.90
67147;DHT22;54061;52.036;5.558;2022-10-31T17:39:17;15.80;99.90
67147;DHT22;54061;52.036;5.558;2022-10-31T17:41:43;15.80;99.90
67147;DHT22;54061;52.036;5.558;2022-10-31T17:44:09;15.80;99.90
67147;DHT22;54061;52.036;5.558;2022-10-31T17:46:36;15.80;99.90
67147;DHT22;54061;52.036;5.558;2022-10-31T17:49:02;15.70;99.90
67147;DHT22;54061;52.036;5.558;2022-10-31T17:51:29;15.70;99.90
67147;DHT22;54061;52.036;5.558;2022-10-31T17:53:56;15.60;99.90
67147;DHT22;54061;52.036;5.558;2022-10-31T17:56:22;15.60;99.90
67147;DHT22;54061;52.036;5.558;2022-10-31T17:58:48;15.60;99.90
67147;DHT22;54061;52.036;5.558;2022-10-31T18:01:15;15.50;99.90
67147;DHT22;54061;52.036;5.558;2022-10-31T18:03:41;15.50;99.90
67147;DHT22;54061;52.036;5.558;2022-10-31T18:06:07;15.40;99.90
67147;DHT22;54061;52.036;5.558;2022-10-31T18:08:36;15.40;99.90
67147;DHT22;54061;52.036;5.558;2022-10-31T18:11:06;15.40;99.90
67147;DHT22;54061;52.036;5.558;2022-10-31T18:13:34;15.40;99.90
67147;DHT22;54061;52.036;5.558;2022-10-31T18:15:59;15.40;99.90
67147;DHT22;54061;52.036;5.558;2022-10-31T18:18:25;15.40;99.90
67147;DHT22;54061;52.036;5.558;2022-10-31T18:20:51;15.40;99.90
67147;DHT22;54061;52.036;5.558;2022-10-31T18:23:16;15.40;99.90
67147;DHT22;54061;52.036;5.558;2022-10-31T18:25:42;15.40;99.90
67147;DHT22;54061;52.036;5.558;2022-10-31T18:28:08;15.30;99.90
67147;DHT22;54061;52.036;5.558;2022-10-31T18:30:38;15.30;99.90
67147;DHT22;54061;52.036;5.558;2022-10-31T18:33:03;15.30;99.90
67147;DHT22;54061;52.036;5.558;2022-10-31T18:35:29;15.30;99.90
67147;DHT22;54061;52.036;5.558;2022-10-31T18:37:54;15.30;99.90
67147;DHT22;54061;52.036;5.558;2022-10-31T18:40:20;15.20;99.90
67147;DHT22;54061;52.036;5.558;2022-10-31T18:42:45;15.20;99.90
67147;DHT22;54061;52.036;5.558;2022-10-31T18:45:11;15.10;99.90
67147;DHT22;54061;52.036;5.558;2022-10-31T18:47:36;15.10;99.90
67147;DHT22;54061;52.036;5.558;2022-10-31T18:50:02;15.00;99.90
67147;DHT22;54061;52.036;5.558;2022-10-31T18:52:28;15.00;99.90
67147;DHT22;54061;52.036;5.558;2022-10-31T18:54:53;14.90;99.90
67147;DHT22;54061;52.036;5.558;2022-10-31T18:57:19;14.90;99.90
67147;DHT22;54061;52.036;5.558;2022-10-31T18:59:44;14.90;99.90
67147;DHT22;54061;52.036;5.558;2022-10-31T19:02:13;14.90;99.90
67147;DHT22;54061;52.036;5.558;2022-10-31T19:04:42;14.80;99.90
67147;DHT22;54061;52.036;5.558;2022-10-31T19:07:08;14.80;99.90
67147;DHT22;54061;52.036;5.558;2022-10-31T19:09:34;14.70;99.90
67147;DHT22;54061;52.036;5.558;2022-10-31T19:11:59;14.70;99.90
67147;DHT22;54061;52.036;5.558;2022-10-31T19:14:25;14.80;99.90
67147;DHT22;54061;52.036;5.558;2022-10-31T19:16:51;14.80;99.90
67147;DHT22;54061;52.036;5.558;2022-10-31T19:19:17;14.80;99.90
67147;DHT22;54061;52.036;5.558;2022-10-31T19:21:44;14.80;99.90
67147;DHT22;54061;52.036;5.558;2022-10-31T19:24:10;14.80;99.90
67147;DHT22;54061;52.036;5.558;2022-10-31T19:26:36;14.70;99.90
67147;DHT22;54061;52.036;5.558;2022-10-31T19:29:01;14.70;99.90
67147;DHT22;54061;52.036;5.558;2022-10-31T19:31:27;14.60;99.90
67147;DHT22;54061;52.036;5.558;2022-10-31T19:33:52;14.60;99.90
67147;DHT22;54061;52.036;5.558;2022-10-31T19:36:19;14.60;99.90
67147;DHT22;54061;52.036;5.558;2022-10-31T19:38:47;14.60;99.90
67147;DHT22;54061;52.036;5.558;2022-10-31T19:41:15;14.60;99.90
67147;DHT22;54061;52.036;5.558;2022-10-31T19:43:42;14.50;99.90
67147;DHT22;54061;52.036;5.558;2022-10-31T19:46:09;14.50;99.90
67147;DHT22;54061;52.036;5.558;2022-10-31T19:48:36;14.50;99.90
67147;DHT22;54061;52.036;5.558;2022-10-31T19:51:04;14.50;99.90
67147;DHT22;54061;52.036;5.558;2022-10-31T19:53:31;14.40;99.90
67147;DHT22;54061;52.036;5.558;2022-10-31T19:55:57;14.40;99.90
67147;DHT22;54061;52.036;5.558;2022-10-31T19:58:23;14.30;99.90
67147;DHT22;54061;52.036;5.558;2022-10-31T20:00:49;14.30;99.90
67147;DHT22;54061;52.036;5.558;2022-10-31T20:03:15;14.30;99.90
67147;DHT22;54061;52.036;5.558;2022-10-31T20:05:41;14.30;99.90
67147;DHT22;54061;52.036;5.558;2022-10-31T20:08:11;14.30;99.90
67147;DHT22;54061;52.036;5.558;2022-10-31T20:10:37;14.30;99.90
67147;DHT22;54061;52.036;5.558;2022-10-31T20:13:03;14.30;99.90
67147;DHT22;54061;52.036;5.558;2022-10-31T20:15:28;14.20;99.90
67147;DHT22;54061;52.036;5.558;2022-10-31T20:17:54;14.30;99.90
67147;DHT22;54061;52.036;5.558;2022-10-31T20:20:20;14.30;99.90
67147;DHT22;54061;52.036;5.558;2022-10-31T20:22:45;14.30;99.90
67147;DHT22;54061;52.036;5.558;2022-10-31T20:25:14;14.30;99.90
67147;DHT22;54061;52.036;5.558;2022-10-31T20:27:39;14.30;99.90
67147;DHT22;54061;52.036;5.558;2022-10-31T20:30:05;14.40;99.90
67147;DHT22;54061;52.036;5.558;2022-10-31T20:32:31;14.40;99.90
67147;DHT22;54061;52.036;5.558;2022-10-31T20:34:56;14.40;99.90
67147;DHT22;54061;52.036;5.558;2022-10-31T20:37:22;14.40;99.90
67147;DHT22;54061;52.036;5.558;2022-10-31T20:39:47;14.40;99.80
67147;DHT22;54061;52.036;5.558;2022-10-31T20:42:13;14.40;99.70
67147;DHT22;54061;52.036;5.558;2022-10-31T20:44:38;14.40;99.70
67147;DHT22;54061;52.036;5.558;2022-10-31T20:47:04;14.40;99.70
67147;DHT22;54061;52.036;5.558;2022-10-31T20:49:30;14.40;99.60
67147;DHT22;54061;52.036;5.558;2022-10-31T20:51:56;14.40;99.50
67147;DHT22;54061;52.036;5.558;2022-10-31T20:54:22;14.40;99.40
67147;DHT22;54061;52.036;5.558;2022-10-31T20:56:47;14.50;99.30
67147;DHT22;54061;52.036;5.558;2022-10-31T20:59:13;14.50;99.10
67147;DHT22;54061;52.036;5.558;2022-10-31T21:01:39;14.50;99.10
67147;DHT22;54061;52.036;5.558;2022-10-31T21:04:05;14.60;99.00
67147;DHT22;54061;52.036;5.558;2022-10-31T21:06:33;14.60;99.00
67147;DHT22;54061;52.036;5.558;2022-10-31T21:08:59;14.60;98.90
67147;DHT22;54061;52.036;5.558;2022-10-31T21:11:26;14.70;98.90
67147;DHT22;54061;52.036;5.558;2022-10-31T21:13:52;14.70;98.70
67147;DHT22;54061;52.036;5.558;2022-10-31T21:16:23;14.70;98.60
67147;DHT22;54061;52.036;5.558;2022-10-31T21:18:49;14.70;98.60
67147;DHT22;54061;52.036;5.558;2022-10-31T21:21:21;14.70;98.60
67147;DHT22;54061;52.036;5.558;2022-10-31T21:23:51;14.70;98.60
67147;DHT22;54061;52.036;5.558;2022-10-31T21:26:19;14.70;98.60
67147;DHT22;54061;52.036;5.558;2022-10-31T21:28:46;14.70;98.60
67147;DHT22;54061;52.036;5.558;2022-10-31T21:31:14;14.60;98.60
67147;DHT22;54061;52.036;5.558;2022-10-31T21:33:41;14.70;98.60
67147;DHT22;54061;52.036;5.558;2022-10-31T21:36:07;14.60;98.60
67147;DHT22;54061;52.036;5.558;2022-10-31T21:38:33;14.60;98.70
67147;DHT22;54061;52.036;5.558;2022-10-31T21:41:07;14.60;98.70
67147;DHT22;54061;52.036;5.558;2022-10-31T21:43:37;14.50;98.50
67147;DHT22;54061;52.036;5.558;2022-10-31T21:46:05;14.60;98.50
67147;DHT22;54061;52.036;5.558;2022-10-31T21:48:31;14.60;98.50
67147;DHT22;54061;52.036;5.558;2022-10-31T21:51:02;14.60;98.40
67147;DHT22;54061;52.036;5.558;2022-10-31T21:53:28;14.60;98.40
67147;DHT22;54061;52.036;5.558;2022-10-31T21:56:12;14.60;98.40
67147;DHT22;54061;52.036;5.558;2022-10-31T21:58:38;14.60;98.30
67147;DHT22;54061;52.036;5.558;2022-10-31T22:01:03;14.60;98.30
67147;DHT22;54061;52.036;5.558;2022-10-31T22:03:29;14.60;98.20
67147;DHT22;54061;52.036;5.558;2022-10-31T22:05:54;14.60;98.20
67147;DHT22;54061;52.036;5.558;2022-10-31T22:08:20;14.60;98.20
67147;DHT22;54061;52.036;5.558;2022-10-31T22:10:45;14.60;98.40
67147;DHT22;54061;52.036;5.558;2022-10-31T22:13:11;14.60;98.10
67147;DHT22;54061;52.036;5.558;2022-10-31T22:15:37;14.60;98.00
67147;DHT22;54061;52.036;5.558;2022-10-31T22:18:02;14.60;98.00
67147;DHT22;54061;52.036;5.558;2022-10-31T22:20:28;14.70;97.90
67147;DHT22;54061;52.036;5.558;2022-10-31T22:22:53;14.70;97.90
67147;DHT22;54061;52.036;5.558;2022-10-31T22:25:19;14.70;98.00
67147;DHT22;54061;52.036;5.558;2022-10-31T22:27:44;14.60;97.90
67147;DHT22;54061;52.036;5.558;2022-10-31T22:30:10;14.60;98.00
67147;DHT22;54061;52.036;5.558;2022-10-31T22:32:36;14.60;98.10
67147;DHT22;54061;52.036;5.558;2022-10-31T22:35:01;14.60;98.20
67147;DHT22;54061;52.036;5.558;2022-10-31T22:37:27;14.60;98.20